Flight Track Log - Related Links

Times and Time Zones

All times are in EDT time to prevent confusion due to time zone crossing. See the SWA118 flight status page for this flight to view local times or setup timezone preferences in your user account.

Time Position Orientation Groundspeed Altitude Reporting Facility
EDT Latitude Longitude Course Direction KTS MPH feet Rate Location/Type
Sun 09:38:19 AM 39.1314 -76.6939 211° Southwest 228 262 1,700  Level Washington Center
Sun 09:39:19 AM 39.1828 -76.7617 314° West 270 311 4,100 2,859 Climbing Washington Center
Sun 09:40:27 AM 39.2167 -76.8500 296° West 274 315 7,800 3,281 Climbing Potomac TRACON
Sun 09:41:27 AM 39.2167 -76.9500 270° West 278 320 11,100 2,350 Climbing Potomac TRACON
Sun 09:42:27 AM 39.2167 -77.0500 270° West 329 379 12,500 2,083 Climbing Potomac TRACON
Sun 09:43:00 AM 39.0599 -77.2627 211° Southwest  Level FlightAware Approximate
Sun 09:43:28 AM 39.1833 -77.1833 252° West 369 425 15,300  Level Potomac TRACON
Sun 09:44:28 AM 39.1000 -77.2500 212° Southwest 372 428 17,800 2,263 Climbing Potomac TRACON
Sun 09:45:22 AM 39.0167 -77.3167 212° Southwest 395 455 19,600 1,814 Climbing Potomac TRACON
Sun 09:47:20 AM 38.8219 -77.4489 208° Southwest 434 499 23,000 1,508 Climbing Washington Center
Sun 09:48:21 AM 38.7186 -77.5153 207° Southwest 422 486 24,100 1,388 Climbing Washington Center
Sun 09:49:21 AM 38.6275 -77.6086 219° Southwest 422 486 25,800 1,600 Climbing Washington Center
Sun 09:50:21 AM 38.5300 -77.7069 218° Southwest 434 499 27,300 1,424 Climbing Washington Center
Sun 09:51:19 AM 38.4547 -77.8267 231° Southwest 434 499 28,600 1,261 Climbing Washington Center
Sun 09:52:20 AM 38.3856 -77.9625 237° Southwest 451 519 29,800 1,250 Climbing Washington Center
Sun 09:53:19 AM 38.3117 -78.1003 236° Southwest 463 533 31,100 1,311 Climbing Washington Center
Sun 09:54:19 AM 38.2422 -78.2356 237° Southwest 469 540 32,400 1,350 Climbing Washington Center
Sun 09:55:19 AM 38.1683 -78.3703 235° Southwest 469 540 33,800 1,388 Climbing Washington Center
Sun 09:56:20 AM 38.1064 -78.5103 241° Southwest 469 540 35,200 1,091 Climbing Washington Center
Sun 09:57:20 AM 38.0592 -78.6561 248° West 455 524 36,000 397 Climbing Washington Center
Sun 09:58:21 AM 38.0053 -78.7989 244° Southwest 455 524 36,000  Level Washington Center
Sun 09:59:21 AM 37.9411 -78.9331 239° Southwest 455 524 36,000  Level Washington Center
Sun 10:00:19 AM 37.8836 -79.0517 238° Southwest 450 518 36,000  Level Washington Center
Sun 10:01:19 AM 37.8192 -79.1881 239° Southwest 450 518 36,000  Level Washington Center
Sun 10:02:20 AM 37.7522 -79.3242 238° Southwest 450 518 36,000  Level Washington Center
Sun 10:03:21 AM 37.6789 -79.4728 238° Southwest 461 531 36,000  Level Washington Center
Sun 10:04:21 AM 37.6117 -79.6081 238° Southwest 456 525 36,000  Level Washington Center
Sun 10:05:21 AM 37.5533 -79.7333 240° Southwest 456 525 36,000  Level Washington Center
Sun 10:06:19 AM 37.4856 -79.8764 239° Southwest 463 533 36,000  Level Washington Center
Sun 10:07:20 AM 37.4183 -80.0058 237° Southwest 463 533 36,000  Level Washington Center
Sun 10:08:21 AM 37.3461 -80.1533 238° Southwest 455 524 36,000  Level Washington Center
Sun 10:09:21 AM 37.2803 -80.2878 238° Southwest 455 524 36,000  Level Washington Center
Sun 10:10:32 AM 37.1967 -80.4536 238° Southwest 446 513 36,000  Level Atlanta Center
Sun 10:11:32 AM 37.1353 -80.5736 237° Southwest 446 513 36,000  Level Atlanta Center
Sun 10:12:32 AM 37.0681 -80.7067 238° Southwest 452 520 36,000  Level Atlanta Center
Sun 10:13:32 AM 36.9989 -80.8447 238° Southwest 457 526 36,000  Level Atlanta Center
Sun 10:14:32 AM 36.9233 -80.9931 238° Southwest 462 532 36,000  Level Atlanta Center
Sun 10:15:32 AM 36.8558 -81.1256 238° Southwest 467 537 36,000  Level Atlanta Center
Sun 10:16:32 AM 36.7881 -81.2600 238° Southwest 462 532 36,000  Level Atlanta Center
Sun 10:17:32 AM 36.7261 -81.3892 239° Southwest 455 524 36,000  Level Atlanta Center
Sun 10:18:32 AM 36.6600 -81.5183 237° Southwest 455 524 36,000  Level Atlanta Center
Sun 10:19:32 AM 36.5897 -81.6497 236° Southwest 455 524 36,000  Level Atlanta Center
Sun 10:20:32 AM 36.5233 -81.7783 237° Southwest 455 524 36,000  Level Atlanta Center
Sun 10:21:32 AM 36.4569 -81.9067 237° Southwest 455 524 36,000  Level Atlanta Center
Sun 10:22:32 AM 36.3881 -82.0347 236° Southwest 450 518 36,000  Level Atlanta Center
Sun 10:23:32 AM 36.3214 -82.1653 238° Southwest 450 518 36,000 50 Level Atlanta Center
Sun 10:24:32 AM 36.2544 -82.2906 236° Southwest 445 512 36,100 650 Climbing Atlanta Center
Sun 10:25:32 AM 36.1894 -82.4181 238° Southwest 445 512 37,300 950 Climbing Atlanta Center
Sun 10:26:32 AM 36.1222 -82.5400 236° Southwest 440 506 38,000 350 Climbing Atlanta Center
Sun 10:27:32 AM 36.0569 -82.6672 238° Southwest 440 506 38,000  Level Atlanta Center
Sun 10:28:32 AM 35.9914 -82.7889 236° Southwest 440 506 38,000  Level Atlanta Center
Sun 10:29:32 AM 35.9258 -82.9131 237° Southwest 440 506 38,000  Level Atlanta Center
Sun 10:30:32 AM 35.8581 -83.0344 235° Southwest 440 506 38,000  Level Atlanta Center
Sun 10:31:32 AM 35.8006 -83.1453 237° Southwest 440 506 38,000  Level Atlanta Center
Sun 10:32:32 AM 35.7389 -83.2661 238° Southwest 433 498 38,000  Level Atlanta Center
Sun 10:33:32 AM 35.6728 -83.3869 236° Southwest 428 493 38,000  Level Atlanta Center
Sun 10:34:32 AM 35.6086 -83.5100 237° Southwest 428 493 38,000  Level Atlanta Center
Sun 10:35:32 AM 35.5403 -83.6303 235° Southwest 433 498 38,000  Level Atlanta Center
Sun 10:36:32 AM 35.4864 -83.7581 243° Southwest 428 493 38,000  Level Atlanta Center
Sun 10:37:32 AM 35.4492 -83.8908 251° West 423 487 38,000  Level Atlanta Center
Sun 10:38:32 AM 35.4158 -84.0261 253° West 423 487 38,000  Level Atlanta Center
Sun 10:39:32 AM 35.3844 -84.1586 254° West 418 481 38,000  Level Atlanta Center
Sun 10:40:32 AM 35.3528 -84.2933 254° West 418 481 38,000  Level Atlanta Center
Sun 10:41:32 AM 35.3256 -84.4283 256° West 418 481 38,000  Level Atlanta Center
Sun 10:42:32 AM 35.3083 -84.5631 261° West 413 475 38,000  Level Atlanta Center
Sun 10:43:32 AM 35.2847 -84.7003 258° West 413 475 38,000  Level Atlanta Center
Sun 10:44:32 AM 35.2650 -84.8375 260° West 413 475 38,000 -50 Level Atlanta Center
Sun 10:45:32 AM 35.2850 -84.9775 280° West 403 464 37,900 -550 Descending Atlanta Center
Sun 10:46:32 AM 35.3172 -85.1128 286° West 409 471 36,900 -950 Descending Atlanta Center
Sun 10:47:32 AM 35.3514 -85.2583 286° West 419 482 36,000 -450 Descending Atlanta Center
Sun 10:48:32 AM 35.3789 -85.4169 282° West 430 495 36,000  Level Atlanta Center
Sun 10:49:32 AM 35.3667 -85.5669 264° West 430 495 36,000  Level Atlanta Center
Sun 10:50:32 AM 35.3378 -85.7064 256° West 430 495 36,000  Level Atlanta Center
Sun 10:51:32 AM 35.2528 -85.8114 225° Southwest 409 471 36,000  Level Atlanta Center
Sun 10:52:32 AM 35.1617 -85.9086 221° Southwest 425 489 36,000  Level Atlanta Center
Sun 10:53:32 AM 35.0683 -86.0106 222° Southwest 432 497 36,000  Level Atlanta Center
Sun 10:54:32 AM 34.9769 -86.1097 222° Southwest 444 511 36,000  Level Atlanta Center
Sun 10:55:32 AM 34.8961 -86.1989 222° Southwest 439 505 36,000  Level Atlanta Center
Sun 10:56:32 AM 34.8044 -86.2978 222° Southwest 444 511 36,000  Level Atlanta Center
Sun 10:57:32 AM 34.7108 -86.3964 221° Southwest 444 511 36,000  Level Atlanta Center
Sun 10:58:32 AM 34.6169 -86.4972 221° Southwest 444 511 36,000  Level Atlanta Center
Sun 10:59:32 AM 34.5253 -86.5953 221° Southwest 449 517 36,000  Level Atlanta Center
Sun 11:00:32 AM 34.4314 -86.6933 221° Southwest 449 517 36,000  Level Atlanta Center
Sun 11:01:32 AM 34.3375 -86.7908 221° Southwest 449 517 36,000  Level Atlanta Center
Sun 11:02:32 AM 34.2369 -86.8983 221° Southwest 449 517 36,000  Level Atlanta Center
Sun 11:03:32 AM 34.1428 -86.9928 220° Southwest 449 517 36,000  Level Atlanta Center
Sun 11:04:32 AM 34.0506 -87.0925 222° Southwest 449 517 36,000  Level Atlanta Center
Sun 11:05:32 AM 33.9606 -87.1869 221° Southwest 449 517 36,000  Level Atlanta Center
Sun 11:06:32 AM 33.8683 -87.2836 221° Southwest 449 517 36,000  Level Atlanta Center
Sun 11:08:08 AM 33.7208 -87.4378 221° Southwest 441 507 36,000  Level Memphis Center
Sun 11:09:08 AM 33.6292 -87.5331 221° Southwest 441 507 36,000  Level Memphis Center
Sun 11:10:08 AM 33.5375 -87.6283 221° Southwest 441 507 36,000  Level Memphis Center
Sun 11:11:08 AM 33.4456 -87.7233 221° Southwest 441 507 36,000  Level Memphis Center
Sun 11:12:08 AM 33.3556 -87.8131 220° Southwest 446 513 36,000  Level Memphis Center
Sun 11:13:08 AM 33.2656 -87.9075 221° Southwest 441 507 36,000  Level Memphis Center
Sun 11:14:08 AM 33.1714 -87.9994 219° Southwest 441 507 36,000  Level Memphis Center
Sun 11:15:08 AM 33.0814 -88.0936 221° Southwest 441 507 36,000  Level Memphis Center
Sun 11:16:08 AM 33.0097 -88.1697 222° Southwest 441 507 36,000  Level Memphis Center
Sun 11:17:08 AM 32.9111 -88.2711 221° Southwest 433 498 36,000  Level Memphis Center
Sun 11:18:08 AM 32.8186 -88.3647 220° Southwest 433 498 36,000  Level Memphis Center
Sun 11:19:08 AM 32.7242 -88.4583 220° Southwest 438 504 36,000 -500 Level Memphis Center
Sun 11:20:08 AM 32.6358 -88.5492 221° Southwest 438 504 35,000 -500 Descending Memphis Center
Sun 11:21:08 AM 32.5472 -88.6394 221° Southwest 427 491 35,000  Level Memphis Center
Sun 11:22:08 AM 32.4586 -88.7250 219° Southwest 427 491 35,000  Level Memphis Center
Sun 11:23:08 AM 32.3722 -88.8125 221° Southwest 427 491 35,000  Level Memphis Center
Sun 11:24:08 AM 32.2814 -88.9003 219° Southwest 427 491 35,000  Level Memphis Center
Sun 11:25:08 AM 32.1925 -88.9850 219° Southwest 427 491 35,000  Level Memphis Center
Sun 11:26:08 AM 32.1017 -89.0722 219° Southwest 427 491 35,000  Level Memphis Center
Sun 11:27:08 AM 32.0128 -89.1594 220° Southwest 427 491 35,000 -1,027 Level Memphis Center
Sun 11:29:15 AM 31.8283 -89.3372 219° Southwest 402 463 31,800 -1,691 Descending Houston Center
Sun 11:30:16 AM 31.7442 -89.4167 219° Southwest 394 453 29,700 -1,854 Descending Houston Center
Sun 11:31:18 AM 31.6639 -89.4953 220° Southwest 383 441 28,000 -871 Descending Houston Center
Sun 11:32:20 AM 31.5764 -89.5767 218° Southwest 385 443 27,900 -532 Descending Houston Center
Sun 11:33:22 AM 31.4764 -89.6375 207° Southwest 413 475 26,900 -976 Descending Houston Center
Sun 11:34:23 AM 31.3786 -89.6961 207° Southwest 398 458 25,900 -1,073 Descending Houston Center
Sun 11:35:25 AM 31.2614 -89.7678 208° Southwest 398 458 24,700 -1,065 Descending Houston Center
Sun 11:36:27 AM 31.1669 -89.8258 208° Southwest 388 447 23,700 -1,355 Descending Houston Center
Sun 11:37:29 AM 31.0722 -89.8822 207° Southwest 384 442 21,900 -1,887 Descending Houston Center
Sun 11:38:31 AM 30.9803 -89.9383 208° Southwest 376 433 19,800 -2,000 Descending Houston Center
Sun 11:39:32 AM 30.8908 -89.9914 207° Southwest 368 423 17,800 -2,056 Descending Houston Center
Sun 11:40:19 AM 30.8136 -90.0408 209° Southwest 355 409 16,100 -1,935 Descending Houston Center
Sun 11:40:34 AM 30.8039 -90.0436 194° South 355 409 15,800 -2,649 Descending Houston Center
Sun 11:41:36 AM 30.6978 -90.0947 203° Southwest 347 399 12,700 -2,855 Descending Houston Center
Sun 11:42:38 AM 30.5994 -90.1128 189° South 360 414 9,900 -1,512 Descending Houston Center
Sun 11:43:39 AM 30.5072 -90.1286 188° South 282 325 9,600 -1,086 Descending Houston Center
Sun 11:44:34 AM 30.4386 -90.1411 189° South 265 305 7,800 -1,584 Descending Houston Center
Sun 11:45:44 AM 30.3656 -90.1539 189° South 279 321 6,300 -1,451 Descending Houston Center
Sun 11:46:05 AM 30.3264 -90.1603 188° South 274 315 5,600 -1,258 Descending Houston Center
Sun 11:46:46 AM 30.2803 -90.1694 190° South 267 307 5,000 -757 Descending Houston Center
Sun 11:47:48 AM 30.2192 -90.1794 188° South 244 281 4,300 -864 Descending Houston Center
Sun 11:48:44 AM 30.1581 -90.1961 193° South 207 238 3,300 -1,086 Descending Houston Center
Sun 11:49:44 AM 30.1064 -90.2125 195° South 192 221 2,200 -992 Descending Houston Center
Sun 11:50:45 AM 30.0650 -90.2264 196° South 149 171 1,300 -818 Descending Houston Center
Sun 11:51:56 AM 30.0222 -90.2403 196° South 157 181 400 -761 Descending Houston Center
Sun 11:53:00 AM 29.9833 -90.2500 190° South  Level FlightAware Approximate
Sun 12:00:00 PM 29.9934 -90.2580 190° South  Level Estimated
Sun 12:01:00 PM 29.9934 -90.2580 190° South  Level Estimated
Sun 12:02:00 PM 29.9934 -90.2580 190° South  Level Estimated

Login

Don't have an account? Register now (free) for customized features, flight alerts, and more!